sensor_id;sensor_type;location;lat;lon;timestamp;P1;durP1;ratioP1;P2;durP2;ratioP2
8415;SDS011;4245;42.120;24.732;2023-02-08T00:01:18;17.80;;;10.03;;
8415;SDS011;4245;42.120;24.732;2023-02-08T00:03:48;25.00;;;10.93;;
8415;SDS011;4245;42.120;24.732;2023-02-08T00:06:15;20.33;;;9.77;;
8415;SDS011;4245;42.120;24.732;2023-02-08T00:08:43;19.67;;;10.30;;
8415;SDS011;4245;42.120;24.732;2023-02-08T00:11:10;22.00;;;10.13;;
8415;SDS011;4245;42.120;24.732;2023-02-08T00:13:37;22.63;;;10.87;;
8415;SDS011;4245;42.120;24.732;2023-02-08T00:16:05;18.87;;;10.00;;
8415;SDS011;4245;42.120;24.732;2023-02-08T00:18:33;23.50;;;10.50;;
8415;SDS011;4245;42.120;24.732;2023-02-08T00:21:01;18.47;;;10.13;;
8415;SDS011;4245;42.120;24.732;2023-02-08T00:23:33;22.30;;;10.70;;
8415;SDS011;4245;42.120;24.732;2023-02-08T00:25:59;17.87;;;9.77;;
8415;SDS011;4245;42.120;24.732;2023-02-08T00:28:26;21.67;;;10.23;;
8415;SDS011;4245;42.120;24.732;2023-02-08T00:30:53;23.00;;;11.13;;
8415;SDS011;4245;42.120;24.732;2023-02-08T00:33:20;20.53;;;10.67;;
8415;SDS011;4245;42.120;24.732;2023-02-08T00:35:46;18.10;;;9.50;;
8415;SDS011;4245;42.120;24.732;2023-02-08T00:38:15;18.03;;;10.27;;
8415;SDS011;4245;42.120;24.732;2023-02-08T00:40:41;19.43;;;9.97;;
8415;SDS011;4245;42.120;24.732;2023-02-08T00:43:08;20.93;;;9.53;;
8415;SDS011;4245;42.120;24.732;2023-02-08T00:45:35;21.20;;;10.57;;
8415;SDS011;4245;42.120;24.732;2023-02-08T00:48:01;17.00;;;9.77;;
8415;SDS011;4245;42.120;24.732;2023-02-08T00:50:28;21.17;;;10.00;;
8415;SDS011;4245;42.120;24.732;2023-02-08T00:52:55;17.77;;;10.20;;
8415;SDS011;4245;42.120;24.732;2023-02-08T00:55:25;19.03;;;10.30;;
8415;SDS011;4245;42.120;24.732;2023-02-08T00:57:51;22.00;;;11.20;;
8415;SDS011;4245;42.120;24.732;2023-02-08T01:00:18;20.43;;;9.70;;
8415;SDS011;4245;42.120;24.732;2023-02-08T01:02:46;19.60;;;10.03;;
8415;SDS011;4245;42.120;24.732;2023-02-08T01:05:13;21.07;;;11.03;;
8415;SDS011;4245;42.120;24.732;2023-02-08T01:07:39;15.97;;;8.50;;
8415;SDS011;4245;42.120;24.732;2023-02-08T01:10:07;18.70;;;9.80;;
8415;SDS011;4245;42.120;24.732;2023-02-08T01:12:37;17.73;;;9.63;;
8415;SDS011;4245;42.120;24.732;2023-02-08T01:15:04;22.97;;;10.70;;
8415;SDS011;4245;42.120;24.732;2023-02-08T01:17:32;16.10;;;8.60;;
8415;SDS011;4245;42.120;24.732;2023-02-08T01:19:58;18.23;;;9.53;;
8415;SDS011;4245;42.120;24.732;2023-02-08T01:22:27;20.23;;;9.23;;
8415;SDS011;4245;42.120;24.732;2023-02-08T01:24:54;21.37;;;10.53;;
8415;SDS011;4245;42.120;24.732;2023-02-08T01:27:21;20.10;;;10.37;;
8415;SDS011;4245;42.120;24.732;2023-02-08T01:29:49;18.07;;;10.10;;
8415;SDS011;4245;42.120;24.732;2023-02-08T01:32:15;17.90;;;9.77;;
8415;SDS011;4245;42.120;24.732;2023-02-08T01:34:42;16.20;;;9.10;;
8415;SDS011;4245;42.120;24.732;2023-02-08T01:37:09;18.37;;;9.40;;
8415;SDS011;4245;42.120;24.732;2023-02-08T01:39:36;22.00;;;10.50;;
8415;SDS011;4245;42.120;24.732;2023-02-08T01:42:03;17.53;;;9.87;;
8415;SDS011;4245;42.120;24.732;2023-02-08T01:47:46;18.33;;;9.57;;
8415;SDS011;4245;42.120;24.732;2023-02-08T01:50:16;20.63;;;10.80;;
8415;SDS011;4245;42.120;24.732;2023-02-08T01:52:46;19.17;;;10.00;;
8415;SDS011;4245;42.120;24.732;2023-02-08T01:55:15;20.17;;;10.60;;
8415;SDS011;4245;42.120;24.732;2023-02-08T01:57:45;24.40;;;10.60;;
8415;SDS011;4245;42.120;24.732;2023-02-08T02:00:18;19.13;;;10.17;;
8415;SDS011;4245;42.120;24.732;2023-02-08T02:02:48;17.60;;;9.47;;
8415;SDS011;4245;42.120;24.732;2023-02-08T02:05:19;19.13;;;10.03;;
8415;SDS011;4245;42.120;24.732;2023-02-08T02:07:48;20.73;;;10.17;;
8415;SDS011;4245;42.120;24.732;2023-02-08T02:10:17;23.77;;;10.30;;
8415;SDS011;4245;42.120;24.732;2023-02-08T02:12:48;23.03;;;10.27;;
8415;SDS011;4245;42.120;24.732;2023-02-08T02:15:16;18.27;;;9.83;;
8415;SDS011;4245;42.120;24.732;2023-02-08T02:17:43;17.17;;;8.87;;
8415;SDS011;4245;42.120;24.732;2023-02-08T02:20:13;18.93;;;9.63;;
8415;SDS011;4245;42.120;24.732;2023-02-08T02:25:56;15.83;;;8.07;;
8415;SDS011;4245;42.120;24.732;2023-02-08T02:34:40;19.40;;;10.07;;
8415;SDS011;4245;42.120;24.732;2023-02-08T02:37:12;22.40;;;10.33;;
8415;SDS011;4245;42.120;24.732;2023-02-08T02:39:56;22.83;;;10.70;;
8415;SDS011;4245;42.120;24.732;2023-02-08T02:42:33;18.90;;;9.43;;
8415;SDS011;4245;42.120;24.732;2023-02-08T02:45:27;20.17;;;9.40;;
8415;SDS011;4245;42.120;24.732;2023-02-08T02:48:03;17.73;;;9.53;;
8415;SDS011;4245;42.120;24.732;2023-02-08T02:50:36;22.23;;;10.20;;
8415;SDS011;4245;42.120;24.732;2023-02-08T02:53:08;17.53;;;9.87;;
8415;SDS011;4245;42.120;24.732;2023-02-08T02:55:40;19.73;;;10.23;;
8415;SDS011;4245;42.120;24.732;2023-02-08T02:58:10;21.40;;;10.33;;
8415;SDS011;4245;42.120;24.732;2023-02-08T03:00:41;19.43;;;10.50;;
8415;SDS011;4245;42.120;24.732;2023-02-08T03:03:11;19.03;;;10.13;;
8415;SDS011;4245;42.120;24.732;2023-02-08T03:05:45;18.47;;;9.63;;
8415;SDS011;4245;42.120;24.732;2023-02-08T03:08:18;20.03;;;9.87;;
8415;SDS011;4245;42.120;24.732;2023-02-08T03:11:02;21.43;;;9.27;;
8415;SDS011;4245;42.120;24.732;2023-02-08T03:13:42;17.97;;;8.80;;
8415;SDS011;4245;42.120;24.732;2023-02-08T03:16:23;19.43;;;9.03;;
8415;SDS011;4245;42.120;24.732;2023-02-08T03:19:01;21.87;;;10.20;;
8415;SDS011;4245;42.120;24.732;2023-02-08T03:21:36;16.33;;;8.83;;
8415;SDS011;4245;42.120;24.732;2023-02-08T03:24:10;17.07;;;8.93;;
8415;SDS011;4245;42.120;24.732;2023-02-08T03:26:49;20.23;;;10.00;;
8415;SDS011;4245;42.120;24.732;2023-02-08T03:29:24;14.47;;;6.87;;
8415;SDS011;4245;42.120;24.732;2023-02-08T03:31:58;19.23;;;9.47;;
8415;SDS011;4245;42.120;24.732;2023-02-08T03:34:33;17.50;;;8.27;;
8415;SDS011;4245;42.120;24.732;2023-02-08T03:37:09;15.93;;;8.80;;
8415;SDS011;4245;42.120;24.732;2023-02-08T03:39:39;17.30;;;9.33;;
8415;SDS011;4245;42.120;24.732;2023-02-08T03:42:11;20.33;;;9.87;;
8415;SDS011;4245;42.120;24.732;2023-02-08T03:44:45;16.67;;;8.90;;
8415;SDS011;4245;42.120;24.732;2023-02-08T03:47:17;21.60;;;9.90;;
8415;SDS011;4245;42.120;24.732;2023-02-08T03:49:49;18.67;;;10.13;;
8415;SDS011;4245;42.120;24.732;2023-02-08T03:52:18;19.83;;;10.27;;
8415;SDS011;4245;42.120;24.732;2023-02-08T03:54:48;18.57;;;9.47;;
8415;SDS011;4245;42.120;24.732;2023-02-08T03:57:19;18.53;;;9.10;;
8415;SDS011;4245;42.120;24.732;2023-02-08T03:59:50;19.50;;;10.13;;
8415;SDS011;4245;42.120;24.732;2023-02-08T04:02:22;20.83;;;10.27;;
8415;SDS011;4245;42.120;24.732;2023-02-08T04:04:54;17.93;;;8.87;;
8415;SDS011;4245;42.120;24.732;2023-02-08T04:07:22;19.60;;;10.00;;
8415;SDS011;4245;42.120;24.732;2023-02-08T04:09:49;19.60;;;9.97;;
8415;SDS011;4245;42.120;24.732;2023-02-08T04:12:16;18.33;;;9.87;;
8415;SDS011;4245;42.120;24.732;2023-02-08T04:14:43;19.30;;;10.23;;
8415;SDS011;4245;42.120;24.732;2023-02-08T04:17:09;19.30;;;9.03;;
8415;SDS011;4245;42.120;24.732;2023-02-08T04:19:36;17.80;;;9.50;;
8415;SDS011;4245;42.120;24.732;2023-02-08T04:22:04;20.13;;;9.90;;
8415;SDS011;4245;42.120;24.732;2023-02-08T04:24:31;17.43;;;10.20;;
8415;SDS011;4245;42.120;24.732;2023-02-08T04:26:58;19.50;;;11.57;;
8415;SDS011;4245;42.120;24.732;2023-02-08T04:29:25;21.50;;;9.93;;
8415;SDS011;4245;42.120;24.732;2023-02-08T04:31:53;18.67;;;10.40;;
8415;SDS011;4245;42.120;24.732;2023-02-08T04:34:20;20.33;;;10.23;;
8415;SDS011;4245;42.120;24.732;2023-02-08T04:36:47;24.00;;;11.00;;
8415;SDS011;4245;42.120;24.732;2023-02-08T04:39:15;19.83;;;10.77;;
8415;SDS011;4245;42.120;24.732;2023-02-08T04:41:42;20.23;;;10.00;;
8415;SDS011;4245;42.120;24.732;2023-02-08T04:44:09;16.53;;;9.17;;
8415;SDS011;4245;42.120;24.732;2023-02-08T04:46:35;19.07;;;10.33;;
8415;SDS011;4245;42.120;24.732;2023-02-08T04:49:02;16.90;;;9.27;;
8415;SDS011;4245;42.120;24.732;2023-02-08T04:51:29;18.53;;;8.03;;
8415;SDS011;4245;42.120;24.732;2023-02-08T04:53:56;15.53;;;8.63;;
8415;SDS011;4245;42.120;24.732;2023-02-08T04:56:24;17.53;;;9.27;;
8415;SDS011;4245;42.120;24.732;2023-02-08T04:58:50;21.00;;;9.67;;
8415;SDS011;4245;42.120;24.732;2023-02-08T05:01:17;19.47;;;10.27;;
8415;SDS011;4245;42.120;24.732;2023-02-08T05:03:44;20.97;;;10.87;;
8415;SDS011;4245;42.120;24.732;2023-02-08T05:06:11;20.40;;;10.20;;
8415;SDS011;4245;42.120;24.732;2023-02-08T05:08:38;18.60;;;9.47;;
8415;SDS011;4245;42.120;24.732;2023-02-08T05:11:06;13.50;;;7.17;;
8415;SDS011;4245;42.120;24.732;2023-02-08T05:13:34;9.63;;;5.43;;
8415;SDS011;4245;42.120;24.732;2023-02-08T05:16:01;19.13;;;9.83;;
8415;SDS011;4245;42.120;24.732;2023-02-08T05:18:28;22.93;;;9.50;;
8415;SDS011;4245;42.120;24.732;2023-02-08T05:20:55;17.23;;;8.87;;
8415;SDS011;4245;42.120;24.732;2023-02-08T05:23:23;27.00;;;10.23;;
8415;SDS011;4245;42.120;24.732;2023-02-08T05:25:50;21.80;;;10.43;;
8415;SDS011;4245;42.120;24.732;2023-02-08T05:28:18;19.30;;;9.10;;
8415;SDS011;4245;42.120;24.732;2023-02-08T05:30:46;19.20;;;9.53;;
8415;SDS011;4245;42.120;24.732;2023-02-08T05:33:13;20.37;;;9.17;;
8415;SDS011;4245;42.120;24.732;2023-02-08T05:35:40;21.20;;;11.10;;
8415;SDS011;4245;42.120;24.732;2023-02-08T05:38:07;18.63;;;9.57;;
8415;SDS011;4245;42.120;24.732;2023-02-08T05:40:34;18.10;;;8.97;;
8415;SDS011;4245;42.120;24.732;2023-02-08T05:43:01;18.23;;;8.90;;
8415;SDS011;4245;42.120;24.732;2023-02-08T05:45:28;20.23;;;9.83;;
8415;SDS011;4245;42.120;24.732;2023-02-08T05:47:56;20.23;;;10.10;;
8415;SDS011;4245;42.120;24.732;2023-02-08T05:50:24;17.40;;;10.03;;
8415;SDS011;4245;42.120;24.732;2023-02-08T05:52:51;22.23;;;11.17;;
8415;SDS011;4245;42.120;24.732;2023-02-08T05:55:18;21.30;;;12.00;;
8415;SDS011;4245;42.120;24.732;2023-02-08T05:57:45;23.73;;;10.63;;
8415;SDS011;4245;42.120;24.732;2023-02-08T06:00:12;18.37;;;8.87;;
8415;SDS011;4245;42.120;24.732;2023-02-08T06:02:40;22.30;;;11.10;;
8415;SDS011;4245;42.120;24.732;2023-02-08T06:05:08;18.03;;;10.07;;
8415;SDS011;4245;42.120;24.732;2023-02-08T06:07:35;23.00;;;10.33;;
8415;SDS011;4245;42.120;24.732;2023-02-08T06:10:01;20.40;;;10.13;;
8415;SDS011;4245;42.120;24.732;2023-02-08T06:12:28;19.63;;;9.60;;
8415;SDS011;4245;42.120;24.732;2023-02-08T06:14:55;21.40;;;11.03;;
8415;SDS011;4245;42.120;24.732;2023-02-08T06:17:22;20.60;;;11.20;;
8415;SDS011;4245;42.120;24.732;2023-02-08T06:19:49;24.07;;;11.90;;
8415;SDS011;4245;42.120;24.732;2023-02-08T06:22:17;24.73;;;11.90;;
8415;SDS011;4245;42.120;24.732;2023-02-08T06:24:44;26.23;;;12.70;;
8415;SDS011;4245;42.120;24.732;2023-02-08T06:27:12;31.17;;;14.10;;
8415;SDS011;4245;42.120;24.732;2023-02-08T06:29:38;28.63;;;14.67;;
8415;SDS011;4245;42.120;24.732;2023-02-08T06:32:05;32.93;;;15.43;;
8415;SDS011;4245;42.120;24.732;2023-02-08T06:34:32;30.73;;;13.43;;
8415;SDS011;4245;42.120;24.732;2023-02-08T06:36:58;30.07;;;15.13;;
8415;SDS011;4245;42.120;24.732;2023-02-08T06:39:27;23.77;;;12.40;;
8415;SDS011;4245;42.120;24.732;2023-02-08T06:41:54;21.23;;;12.57;;
8415;SDS011;4245;42.120;24.732;2023-02-08T06:44:21;27.73;;;12.50;;
8415;SDS011;4245;42.120;24.732;2023-02-08T06:46:48;23.47;;;12.40;;
8415;SDS011;4245;42.120;24.732;2023-02-08T06:49:15;37.77;;;13.97;;
8415;SDS011;4245;42.120;24.732;2023-02-08T06:51:42;21.93;;;12.20;;
8415;SDS011;4245;42.120;24.732;2023-02-08T06:54:09;21.63;;;11.20;;
8415;SDS011;4245;42.120;24.732;2023-02-08T06:56:37;19.60;;;11.00;;
8415;SDS011;4245;42.120;24.732;2023-02-08T06:59:03;22.07;;;11.77;;
8415;SDS011;4245;42.120;24.732;2023-02-08T07:01:30;24.07;;;11.73;;
8415;SDS011;4245;42.120;24.732;2023-02-08T07:03:57;25.00;;;11.57;;
8415;SDS011;4245;42.120;24.732;2023-02-08T07:06:24;19.50;;;11.47;;
8415;SDS011;4245;42.120;24.732;2023-02-08T07:08:51;24.37;;;11.97;;
8415;SDS011;4245;42.120;24.732;2023-02-08T07:11:18;24.97;;;12.40;;
8415;SDS011;4245;42.120;24.732;2023-02-08T07:13:47;22.87;;;11.90;;
8415;SDS011;4245;42.120;24.732;2023-02-08T07:16:14;23.38;;;13.65;;
8415;SDS011;4245;42.120;24.732;2023-02-08T07:18:41;19.80;;;10.83;;
8415;SDS011;4245;42.120;24.732;2023-02-08T07:21:08;25.33;;;13.17;;
8415;SDS011;4245;42.120;24.732;2023-02-08T07:23:36;24.50;;;12.27;;
8415;SDS011;4245;42.120;24.732;2023-02-08T07:26:03;25.20;;;12.30;;
8415;SDS011;4245;42.120;24.732;2023-02-08T07:28:32;23.60;;;12.37;;
8415;SDS011;4245;42.120;24.732;2023-02-08T07:31:03;21.37;;;11.93;;
8415;SDS011;4245;42.120;24.732;2023-02-08T07:33:30;26.30;;;12.23;;
8415;SDS011;4245;42.120;24.732;2023-02-08T07:35:57;23.37;;;11.77;;
8415;SDS011;4245;42.120;24.732;2023-02-08T07:38:24;24.03;;;11.13;;
8415;SDS011;4245;42.120;24.732;2023-02-08T07:40:51;16.90;;;9.03;;
8415;SDS011;4245;42.120;24.732;2023-02-08T07:43:18;24.33;;;12.23;;
8415;SDS011;4245;42.120;24.732;2023-02-08T07:45:44;19.07;;;10.73;;
8415;SDS011;4245;42.120;24.732;2023-02-08T07:48:12;22.50;;;11.20;;
8415;SDS011;4245;42.120;24.732;2023-02-08T07:50:39;18.23;;;8.23;;
8415;SDS011;4245;42.120;24.732;2023-02-08T07:53:06;18.70;;;9.57;;
8415;SDS011;4245;42.120;24.732;2023-02-08T07:55:33;22.57;;;11.53;;
8415;SDS011;4245;42.120;24.732;2023-02-08T07:58:00;21.10;;;11.13;;
8415;SDS011;4245;42.120;24.732;2023-02-08T08:00:26;20.60;;;10.67;;
8415;SDS011;4245;42.120;24.732;2023-02-08T08:02:53;19.23;;;11.27;;
8415;SDS011;4245;42.120;24.732;2023-02-08T08:05:21;22.40;;;11.27;;
8415;SDS011;4245;42.120;24.732;2023-02-08T08:07:48;22.23;;;11.67;;
8415;SDS011;4245;42.120;24.732;2023-02-08T08:10:15;23.23;;;11.80;;
8415;SDS011;4245;42.120;24.732;2023-02-08T08:12:41;23.23;;;12.00;;
8415;SDS011;4245;42.120;24.732;2023-02-08T08:15:08;22.93;;;12.10;;
8415;SDS011;4245;42.120;24.732;2023-02-08T08:17:35;24.00;;;13.13;;
8415;SDS011;4245;42.120;24.732;2023-02-08T08:20:03;22.30;;;11.60;;
8415;SDS011;4245;42.120;24.732;2023-02-08T08:22:32;22.83;;;10.60;;
8415;SDS011;4245;42.120;24.732;2023-02-08T08:24:58;35.00;;;16.60;;
8415;SDS011;4245;42.120;24.732;2023-02-08T08:27:25;21.53;;;11.47;;
8415;SDS011;4245;42.120;24.732;2023-02-08T08:29:52;18.57;;;11.13;;
8415;SDS011;4245;42.120;24.732;2023-02-08T08:32:19;19.43;;;11.60;;
8415;SDS011;4245;42.120;24.732;2023-02-08T08:34:46;20.83;;;11.23;;
8415;SDS011;4245;42.120;24.732;2023-02-08T08:37:12;20.47;;;11.67;;
8415;SDS011;4245;42.120;24.732;2023-02-08T08:39:40;22.10;;;11.80;;
8415;SDS011;4245;42.120;24.732;2023-02-08T08:42:07;25.33;;;12.77;;
8415;SDS011;4245;42.120;24.732;2023-02-08T08:44:34;19.77;;;11.57;;
8415;SDS011;4245;42.120;24.732;2023-02-08T08:47:01;20.50;;;12.50;;
8415;SDS011;4245;42.120;24.732;2023-02-08T08:49:28;22.20;;;11.77;;
8415;SDS011;4245;42.120;24.732;2023-02-08T08:51:55;19.97;;;11.37;;
8415;SDS011;4245;42.120;24.732;2023-02-08T08:54:22;18.47;;;11.97;;
8415;SDS011;4245;42.120;24.732;2023-02-08T08:56:50;19.47;;;10.93;;
8415;SDS011;4245;42.120;24.732;2023-02-08T08:59:17;21.17;;;11.13;;
8415;SDS011;4245;42.120;24.732;2023-02-08T09:01:44;18.40;;;10.60;;
8415;SDS011;4245;42.120;24.732;2023-02-08T09:04:11;17.47;;;10.50;;
8415;SDS011;4245;42.120;24.732;2023-02-08T09:06:37;17.10;;;10.13;;
8415;SDS011;4245;42.120;24.732;2023-02-08T09:09:04;15.40;;;9.40;;
8415;SDS011;4245;42.120;24.732;2023-02-08T09:11:32;17.10;;;9.80;;
8415;SDS011;4245;42.120;24.732;2023-02-08T09:14:01;16.83;;;9.77;;
8415;SDS011;4245;42.120;24.732;2023-02-08T09:16:29;21.23;;;10.40;;
8415;SDS011;4245;42.120;24.732;2023-02-08T09:18:59;15.33;;;9.77;;
8415;SDS011;4245;42.120;24.732;2023-02-08T09:21:26;16.67;;;9.77;;
8415;SDS011;4245;42.120;24.732;2023-02-08T09:23:53;19.57;;;11.53;;
8415;SDS011;4245;42.120;24.732;2023-02-08T09:26:19;18.10;;;10.27;;
8415;SDS011;4245;42.120;24.732;2023-02-08T09:28:47;15.73;;;9.47;;
8415;SDS011;4245;42.120;24.732;2023-02-08T09:31:17;17.07;;;10.23;;
8415;SDS011;4245;42.120;24.732;2023-02-08T09:33:45;13.83;;;8.50;;
8415;SDS011;4245;42.120;24.732;2023-02-08T09:36:12;13.90;;;8.83;;
8415;SDS011;4245;42.120;24.732;2023-02-08T09:38:40;16.00;;;9.00;;
8415;SDS011;4245;42.120;24.732;2023-02-08T09:41:11;14.13;;;8.20;;
8415;SDS011;4245;42.120;24.732;2023-02-08T09:43:52;13.50;;;8.33;;
8415;SDS011;4245;42.120;24.732;2023-02-08T09:46:32;13.73;;;8.53;;
8415;SDS011;4245;42.120;24.732;2023-02-08T09:49:03;11.93;;;7.47;;
8415;SDS011;4245;42.120;24.732;2023-02-08T09:51:37;12.83;;;8.20;;
8415;SDS011;4245;42.120;24.732;2023-02-08T09:54:07;13.70;;;8.43;;
8415;SDS011;4245;42.120;24.732;2023-02-08T09:56:42;48.40;;;23.93;;
8415;SDS011;4245;42.120;24.732;2023-02-08T09:59:11;22.47;;;12.57;;
8415;SDS011;4245;42.120;24.732;2023-02-08T10:01:43;11.40;;;7.80;;
8415;SDS011;4245;42.120;24.732;2023-02-08T10:04:14;11.23;;;7.60;;
8415;SDS011;4245;42.120;24.732;2023-02-08T10:06:47;12.27;;;8.20;;
8415;SDS011;4245;42.120;24.732;2023-02-08T10:09:14;12.23;;;7.20;;
8415;SDS011;4245;42.120;24.732;2023-02-08T10:11:46;11.67;;;7.37;;
8415;SDS011;4245;42.120;24.732;2023-02-08T10:14:39;15.30;;;8.90;;
8415;SDS011;4245;42.120;24.732;2023-02-08T10:17:26;12.67;;;8.13;;
8415;SDS011;4245;42.120;24.732;2023-02-08T10:20:08;13.23;;;8.47;;
8415;SDS011;4245;42.120;24.732;2023-02-08T10:22:46;13.93;;;8.87;;
8415;SDS011;4245;42.120;24.732;2023-02-08T10:28:19;11.90;;;8.80;;
8415;SDS011;4245;42.120;24.732;2023-02-08T10:30:56;12.43;;;8.90;;
8415;SDS011;4245;42.120;24.732;2023-02-08T10:33:33;12.83;;;8.90;;
8415;SDS011;4245;42.120;24.732;2023-02-08T10:36:06;13.30;;;8.90;;
8415;SDS011;4245;42.120;24.732;2023-02-08T10:38:39;13.17;;;9.10;;
8415;SDS011;4245;42.120;24.732;2023-02-08T10:41:07;11.63;;;8.80;;
8415;SDS011;4245;42.120;24.732;2023-02-08T10:43:39;14.50;;;9.43;;
8415;SDS011;4245;42.120;24.732;2023-02-08T10:46:14;12.97;;;9.00;;
8415;SDS011;4245;42.120;24.732;2023-02-08T10:48:50;12.33;;;9.17;;
8415;SDS011;4245;42.120;24.732;2023-02-08T10:51:25;14.93;;;9.37;;
8415;SDS011;4245;42.120;24.732;2023-02-08T10:53:53;11.93;;;9.27;;
8415;SDS011;4245;42.120;24.732;2023-02-08T10:56:33;11.40;;;8.90;;
8415;SDS011;4245;42.120;24.732;2023-02-08T10:59:05;13.23;;;9.63;;
8415;SDS011;4245;42.120;24.732;2023-02-08T11:01:40;13.50;;;8.87;;
8415;SDS011;4245;42.120;24.732;2023-02-08T11:04:10;12.00;;;8.10;;
8415;SDS011;4245;42.120;24.732;2023-02-08T11:06:39;12.03;;;8.67;;
8415;SDS011;4245;42.120;24.732;2023-02-08T11:09:12;13.83;;;9.17;;
8415;SDS011;4245;42.120;24.732;2023-02-08T11:11:46;13.77;;;9.50;;
8415;SDS011;4245;42.120;24.732;2023-02-08T11:14:17;13.07;;;8.43;;
8415;SDS011;4245;42.120;24.732;2023-02-08T11:16:48;15.27;;;8.37;;
8415;SDS011;4245;42.120;24.732;2023-02-08T11:19:19;11.10;;;7.80;;
8415;SDS011;4245;42.120;24.732;2023-02-08T11:21:49;13.80;;;9.00;;
8415;SDS011;4245;42.120;24.732;2023-02-08T11:24:22;12.37;;;8.40;;
8415;SDS011;4245;42.120;24.732;2023-02-08T11:26:53;13.97;;;8.83;;
8415;SDS011;4245;42.120;24.732;2023-02-08T11:29:21;13.00;;;8.80;;
8415;SDS011;4245;42.120;24.732;2023-02-08T11:31:55;13.23;;;8.87;;
8415;SDS011;4245;42.120;24.732;2023-02-08T11:34:26;13.00;;;8.47;;
8415;SDS011;4245;42.120;24.732;2023-02-08T11:36:53;13.13;;;8.80;;
8415;SDS011;4245;42.120;24.732;2023-02-08T11:39:23;13.27;;;8.47;;
8415;SDS011;4245;42.120;24.732;2023-02-08T11:41:53;14.40;;;8.80;;
8415;SDS011;4245;42.120;24.732;2023-02-08T11:44:25;16.77;;;9.53;;
8415;SDS011;4245;42.120;24.732;2023-02-08T11:46:55;13.50;;;8.43;;
8415;SDS011;4245;42.120;24.732;2023-02-08T11:49:27;12.03;;;8.93;;
8415;SDS011;4245;42.120;24.732;2023-02-08T11:51:57;11.83;;;8.40;;
8415;SDS011;4245;42.120;24.732;2023-02-08T11:54:32;15.93;;;9.00;;
8415;SDS011;4245;42.120;24.732;2023-02-08T11:57:10;12.37;;;8.00;;
8415;SDS011;4245;42.120;24.732;2023-02-08T11:59:38;12.57;;;7.97;;
8415;SDS011;4245;42.120;24.732;2023-02-08T12:05:03;15.63;;;9.20;;
8415;SDS011;4245;42.120;24.732;2023-02-08T12:07:46;16.93;;;11.87;;
8415;SDS011;4245;42.120;24.732;2023-02-08T12:10:40;11.87;;;7.70;;
8415;SDS011;4245;42.120;24.732;2023-02-08T12:13:22;15.93;;;9.17;;
8415;SDS011;4245;42.120;24.732;2023-02-08T12:16:07;11.17;;;7.97;;
8415;SDS011;4245;42.120;24.732;2023-02-08T12:18:58;12.53;;;7.80;;
8415;SDS011;4245;42.120;24.732;2023-02-08T12:21:47;12.47;;;7.67;;
8415;SDS011;4245;42.120;24.732;2023-02-08T12:24:20;12.53;;;7.63;;
8415;SDS011;4245;42.120;24.732;2023-02-08T12:26:59;14.43;;;8.20;;
8415;SDS011;4245;42.120;24.732;2023-02-08T12:29:39;12.50;;;8.40;;
8415;SDS011;4245;42.120;24.732;2023-02-08T12:32:23;13.27;;;8.93;;
8415;SDS011;4245;42.120;24.732;2023-02-08T12:35:12;18.63;;;8.73;;
8415;SDS011;4245;42.120;24.732;2023-02-08T12:37:51;14.57;;;8.10;;
8415;SDS011;4245;42.120;24.732;2023-02-08T12:40:43;12.00;;;8.30;;
8415;SDS011;4245;42.120;24.732;2023-02-08T12:43:19;14.10;;;7.90;;
8415;SDS011;4245;42.120;24.732;2023-02-08T12:45:58;13.97;;;7.57;;
8415;SDS011;4245;42.120;24.732;2023-02-08T12:48:55;12.80;;;7.67;;
8415;SDS011;4245;42.120;24.732;2023-02-08T12:51:35;12.40;;;8.03;;
8415;SDS011;4245;42.120;24.732;2023-02-08T12:54:09;12.57;;;8.10;;
8415;SDS011;4245;42.120;24.732;2023-02-08T12:56:40;12.33;;;7.70;;
8415;SDS011;4245;42.120;24.732;2023-02-08T12:59:14;14.77;;;8.37;;
8415;SDS011;4245;42.120;24.732;2023-02-08T13:01:47;13.57;;;8.40;;
8415;SDS011;4245;42.120;24.732;2023-02-08T13:04:22;13.10;;;8.53;;
8415;SDS011;4245;42.120;24.732;2023-02-08T13:06:55;23.23;;;12.17;;
8415;SDS011;4245;42.120;24.732;2023-02-08T13:09:28;20.47;;;10.50;;
8415;SDS011;4245;42.120;24.732;2023-02-08T13:12:05;12.87;;;8.33;;
8415;SDS011;4245;42.120;24.732;2023-02-08T13:14:39;13.10;;;8.30;;
8415;SDS011;4245;42.120;24.732;2023-02-08T13:17:12;14.47;;;8.77;;
8415;SDS011;4245;42.120;24.732;2023-02-08T13:19:47;13.97;;;9.40;;
8415;SDS011;4245;42.120;24.732;2023-02-08T13:22:17;16.30;;;9.30;;
8415;SDS011;4245;42.120;24.732;2023-02-08T13:24:46;16.03;;;12.93;;
8415;SDS011;4245;42.120;24.732;2023-02-08T13:27:15;14.20;;;8.50;;
8415;SDS011;4245;42.120;24.732;2023-02-08T13:29:44;12.50;;;8.17;;
8415;SDS011;4245;42.120;24.732;2023-02-08T13:32:16;11.60;;;8.50;;
8415;SDS011;4245;42.120;24.732;2023-02-08T13:34:54;12.57;;;8.57;;
8415;SDS011;4245;42.120;24.732;2023-02-08T13:37:24;16.17;;;9.23;;
8415;SDS011;4245;42.120;24.732;2023-02-08T13:39:58;12.60;;;8.20;;
8415;SDS011;4245;42.120;24.732;2023-02-08T13:42:28;12.93;;;9.70;;
8415;SDS011;4245;42.120;24.732;2023-02-08T13:44:58;12.20;;;9.13;;
8415;SDS011;4245;42.120;24.732;2023-02-08T13:47:28;13.25;;;9.65;;
8415;SDS011;4245;42.120;24.732;2023-02-08T13:49:57;13.85;;;9.48;;
8415;SDS011;4245;42.120;24.732;2023-02-08T14:04:48;14.57;;;9.93;;
8415;SDS011;4245;42.120;24.732;2023-02-08T14:07:26;12.77;;;9.00;;
8415;SDS011;4245;42.120;24.732;2023-02-08T14:10:05;12.13;;;8.67;;
8415;SDS011;4245;42.120;24.732;2023-02-08T14:12:41;13.30;;;8.40;;
8415;SDS011;4245;42.120;24.732;2023-02-08T14:15:33;10.97;;;7.83;;
8415;SDS011;4245;42.120;24.732;2023-02-08T14:18:02;11.23;;;7.67;;
8415;SDS011;4245;42.120;24.732;2023-02-08T14:20:31;10.77;;;7.93;;
8415;SDS011;4245;42.120;24.732;2023-02-08T14:23:00;10.90;;;7.97;;
8415;SDS011;4245;42.120;24.732;2023-02-08T14:25:29;11.10;;;8.07;;
8415;SDS011;4245;42.120;24.732;2023-02-08T14:28:05;12.27;;;8.13;;
8415;SDS011;4245;42.120;24.732;2023-02-08T14:30:34;13.63;;;8.00;;
8415;SDS011;4245;42.120;24.732;2023-02-08T14:33:10;14.90;;;8.17;;
8415;SDS011;4245;42.120;24.732;2023-02-08T14:35:41;14.17;;;9.47;;
8415;SDS011;4245;42.120;24.732;2023-02-08T14:38:30;12.40;;;8.27;;
8415;SDS011;4245;42.120;24.732;2023-02-08T14:41:02;15.83;;;8.57;;
8415;SDS011;4245;42.120;24.732;2023-02-08T14:43:30;12.57;;;8.37;;
8415;SDS011;4245;42.120;24.732;2023-02-08T14:49:07;12.57;;;8.03;;
8415;SDS011;4245;42.120;24.732;2023-02-08T14:51:37;12.40;;;7.93;;
8415;SDS011;4245;42.120;24.732;2023-02-08T14:54:13;11.93;;;8.20;;
8415;SDS011;4245;42.120;24.732;2023-02-08T14:56:45;11.17;;;8.23;;
8415;SDS011;4245;42.120;24.732;2023-02-08T14:59:19;15.47;;;8.67;;
8415;SDS011;4245;42.120;24.732;2023-02-08T15:01:49;11.53;;;7.73;;
8415;SDS011;4245;42.120;24.732;2023-02-08T15:04:21;11.23;;;7.57;;
8415;SDS011;4245;42.120;24.732;2023-02-08T15:06:51;11.67;;;7.97;;
8415;SDS011;4245;42.120;24.732;2023-02-08T15:09:40;11.73;;;7.97;;
8415;SDS011;4245;42.120;24.732;2023-02-08T15:12:10;12.27;;;7.93;;
8415;SDS011;4245;42.120;24.732;2023-02-08T15:14:41;13.77;;;8.67;;
8415;SDS011;4245;42.120;24.732;2023-02-08T15:17:15;12.37;;;8.40;;
8415;SDS011;4245;42.120;24.732;2023-02-08T15:19:47;11.63;;;8.23;;
8415;SDS011;4245;42.120;24.732;2023-02-08T15:22:17;17.20;;;8.80;;
8415;SDS011;4245;42.120;24.732;2023-02-08T15:24:54;17.43;;;9.37;;
8415;SDS011;4245;42.120;24.732;2023-02-08T15:27:24;13.70;;;9.07;;
8415;SDS011;4245;42.120;24.732;2023-02-08T15:29:53;18.10;;;9.53;;
8415;SDS011;4245;42.120;24.732;2023-02-08T15:32:20;16.33;;;9.73;;
8415;SDS011;4245;42.120;24.732;2023-02-08T15:34:52;18.30;;;9.87;;
8415;SDS011;4245;42.120;24.732;2023-02-08T15:37:21;15.90;;;8.87;;